Musselshell, Montana
Current Conditions -  °F | °C
As of 11:55 AM on Thursday 23 Oct 2014 (Local Time) from KMVH Reporting Station
Clear Clear  
Wind Chill: 63°   Ceiling: Unl
Heat Index: 63°   Visibility: 10mi
Dew Point: 32°   Wind: 15mph
Humidity: 32%   Direction: 260°W
Pressure: 29.86"   Gusts: 24mph
Location:  46.52°N, 108.09°W
Report Text: KMVH 231755Z AUTO 26013G21KT 10SM CLR 17/M00 A2986 RMK A01
Loading
Personal Weather Stations






























Interactive Weather Map
Tropical Storm Tracking
New forecast layout! Learn more

10-Day Weather Forecast

Advertisements
Track Severe Weather on mobile